Hovedside
METAR-TAF:

METAR-TAF

Lufthavner :

Lake County Airport

Lakeview, Oregon, USA

breddegrad: 42-10N, lengdegrad: 120-24W, høyde over havet: 1441 m

Gjeldene værobservasjon

Denne rapporten ble laget for 1 time og 13 minutter siden, klokken 01:53 UTC
Vind 10 kt fra Vest-nordvest
Temperatur 24°C
Luftfuktighet 38%
Trykk 1019 hPa
Sikt: 16.1 km
Få skyer i en høyde av 9000 ft

METAR: KLKV 270153Z AUTO 30010KT 10SM FEW090 24/09 A3008 RMK AO2 SLPNO T02440089

Tid: 20:06 (03:06 UTC)


TAF: fraværende

Værobservasjoner og værvarsel for over 4000 flyplasser (METAR- og TAF-rapporter).

Tilgjengelige stasjoner er representert av de røde og gule prikkene på kartet.

Hold musepekeren over prikken for å se navnet på stasjonen.

Klikk så for å se værobservasjoner og -varsler.

For å forandre kartet kan du klikke på den grønne knappen med svart kryss for å zoome inn, på den grønne knappen med strek for å zoome ut, eller på de grønne pilene for å se tilstøtende kart.


METAR-TAF: